Aviation Digital Data Service (ADDS)

Output produced by METARs form (2235 UTC 30 March 2017)
found at http://www.aviationweather.gov/adds/metars/
 
TAF TDPD 301700Z 3018/3118 11008KT 9999 FEW020 
     PROB30 
     TEMPO 3100/3106 8000 SHRA BKN015